Terminal Aerodrome Forecast
Issued by NWS Missoula, MT

Home | Current Version | Previous Version | Text Only | Print | Product List | Glossary On
Versions: 1 2 3 4 5 6 7 8 9 10 11 12 13 14 15 16 17 18 19 20 21 22 23 24 25
000
FTUS45 KMSO 180319 AAA
TAFBTM
TAF AMD
KBTM 180319Z 1803/1824 34010G20KT 1SM -SN OVC010 WS020/27045KT
     FM180600 29025G30KT 6SM -SN BLSN OVC040 WS020/27045KT
     FM180900 29008KT P6SM VCSH OVC040 WS020/28050KT=

USA.gov is the U.S. government's official web portal to all federal, state and local government web resources and services.